Terminal Aerodrome Forecast
Issued by NWS Sioux Falls, SD

Home | Current Version | Previous Version | Text Only | Print | Product List | Glossary On
Versions: 1 2 3 4 5 6 7 8 9 10 11 12 13 14
645
FTUS43 KFSD 170537
TAFFSD
TAF
KFSD 170537Z 1706/1806 17016G24KT P6SM BKN200
     FM170900 18015G23KT P6SM SCT200
     FM171000 18013G21KT P6SM BKN060
     FM171300 18009KT P6SM OVC003
      TEMPO 1713/1716 1SM BR
     FM171600 23007KT P6SM OVC008
     FM171800 30007KT P6SM OVC010
     FM172100 35010KT P6SM OVC045=

USA.gov is the U.S. government's official web portal to all federal, state and local government web resources and services.